sensor_id;sensor_type;location;lat;lon;timestamp;pressure;altitude;pressure_sealevel;temperature;humidity
31873;BME280;22407;42.820;23.374;2022-08-03T00:02:03;95778.23;;;15.03;81.77
31873;BME280;22407;42.820;23.374;2022-08-03T00:04:32;95778.28;;;14.77;83.32
31873;BME280;22407;42.820;23.374;2022-08-03T00:07:01;95772.33;;;14.61;84.16
31873;BME280;22407;42.820;23.374;2022-08-03T00:09:30;95776.58;;;14.50;84.59
31873;BME280;22407;42.820;23.374;2022-08-03T00:11:58;95777.38;;;14.64;84.41
31873;BME280;22407;42.820;23.374;2022-08-03T00:14:27;95779.66;;;14.59;84.75
31873;BME280;22407;42.820;23.374;2022-08-03T00:16:56;95773.09;;;14.75;83.33
31873;BME280;22407;42.820;23.374;2022-08-03T00:19:25;95772.80;;;14.87;82.52
31873;BME280;22407;42.820;23.374;2022-08-03T00:21:54;95773.02;;;14.63;83.84
31873;BME280;22407;42.820;23.374;2022-08-03T00:24:23;95784.03;;;14.42;85.38
31873;BME280;22407;42.820;23.374;2022-08-03T00:26:52;95775.59;;;14.55;84.82
31873;BME280;22407;42.820;23.374;2022-08-03T00:29:21;95771.02;;;14.65;84.18
31873;BME280;22407;42.820;23.374;2022-08-03T00:31:50;95770.24;;;14.73;83.86
31873;BME280;22407;42.820;23.374;2022-08-03T00:34:19;95768.45;;;14.82;82.87
31873;BME280;22407;42.820;23.374;2022-08-03T00:36:48;95774.98;;;14.83;82.52
31873;BME280;22407;42.820;23.374;2022-08-03T00:39:16;95773.41;;;14.76;82.70
31873;BME280;22407;42.820;23.374;2022-08-03T00:41:45;95768.93;;;14.77;82.82
31873;BME280;22407;42.820;23.374;2022-08-03T00:44:15;95772.20;;;14.67;82.90
31873;BME280;22407;42.820;23.374;2022-08-03T00:46:44;95776.22;;;14.49;84.27
31873;BME280;22407;42.820;23.374;2022-08-03T00:49:13;95773.58;;;14.53;84.04
31873;BME280;22407;42.820;23.374;2022-08-03T00:51:42;95775.22;;;14.46;84.50
31873;BME280;22407;42.820;23.374;2022-08-03T00:54:11;95772.48;;;14.59;83.84
31873;BME280;22407;42.820;23.374;2022-08-03T00:56:41;95772.07;;;14.50;84.31
31873;BME280;22407;42.820;23.374;2022-08-03T00:59:11;95774.17;;;14.43;84.38
31873;BME280;22407;42.820;23.374;2022-08-03T01:01:40;95781.39;;;14.46;84.24
31873;BME280;22407;42.820;23.374;2022-08-03T01:04:09;95778.50;;;14.17;85.77
31873;BME280;22407;42.820;23.374;2022-08-03T01:06:56;95774.84;;;14.18;85.92
31873;BME280;22407;42.820;23.374;2022-08-03T01:15:04;95771.19;;;13.66;89.29
31873;BME280;22407;42.820;23.374;2022-08-03T01:17:35;95772.72;;;13.86;88.51
31873;BME280;22407;42.820;23.374;2022-08-03T01:20:12;95772.25;;;13.87;88.63
31873;BME280;22407;42.820;23.374;2022-08-03T01:31:08;95768.66;;;13.96;87.42
31873;BME280;22407;42.820;23.374;2022-08-03T01:33:43;95769.98;;;13.96;87.01
31873;BME280;22407;42.820;23.374;2022-08-03T01:36:28;95763.89;;;13.86;87.74
31873;BME280;22407;42.820;23.374;2022-08-03T01:38:53;95762.59;;;13.90;87.37
31873;BME280;22407;42.820;23.374;2022-08-03T01:41:28;95758.45;;;13.91;87.25
31873;BME280;22407;42.820;23.374;2022-08-03T01:43:56;95753.41;;;13.88;87.28
31873;BME280;22407;42.820;23.374;2022-08-03T01:46:25;95753.98;;;13.78;87.80
31873;BME280;22407;42.820;23.374;2022-08-03T01:48:56;95765.22;;;13.50;89.98
31873;BME280;22407;42.820;23.374;2022-08-03T01:51:28;95765.67;;;13.45;90.49
31873;BME280;22407;42.820;23.374;2022-08-03T01:54:00;95756.52;;;13.66;89.49
31873;BME280;22407;42.820;23.374;2022-08-03T01:56:30;95761.95;;;13.56;89.83
31873;BME280;22407;42.820;23.374;2022-08-03T01:59:00;95764.47;;;13.57;89.15
31873;BME280;22407;42.820;23.374;2022-08-03T02:01:31;95767.16;;;13.44;89.94
31873;BME280;22407;42.820;23.374;2022-08-03T02:04:02;95766.42;;;13.37;90.90
31873;BME280;22407;42.820;23.374;2022-08-03T02:06:34;95766.77;;;13.70;88.90
31873;BME280;22407;42.820;23.374;2022-08-03T02:09:05;95768.30;;;13.41;89.43
31873;BME280;22407;42.820;23.374;2022-08-03T02:11:36;95767.61;;;13.39;90.05
31873;BME280;22407;42.820;23.374;2022-08-03T02:14:06;95766.28;;;13.57;88.69
31873;BME280;22407;42.820;23.374;2022-08-03T02:16:37;95775.34;;;13.46;89.50
31873;BME280;22407;42.820;23.374;2022-08-03T02:19:06;95770.96;;;13.41;89.31
31873;BME280;22407;42.820;23.374;2022-08-03T02:21:37;95773.00;;;13.19;90.21
31873;BME280;22407;42.820;23.374;2022-08-03T02:24:06;95775.98;;;13.44;89.26
31873;BME280;22407;42.820;23.374;2022-08-03T02:26:38;95782.93;;;13.27;90.14
31873;BME280;22407;42.820;23.374;2022-08-03T02:29:15;95779.89;;;13.36;90.21
31873;BME280;22407;42.820;23.374;2022-08-03T02:31:44;95781.67;;;13.31;90.03
31873;BME280;22407;42.820;23.374;2022-08-03T02:34:15;95779.20;;;13.20;90.84
31873;BME280;22407;42.820;23.374;2022-08-03T02:36:48;95785.55;;;12.95;92.58
31873;BME280;22407;42.820;23.374;2022-08-03T02:39:19;95772.78;;;12.75;92.77
31873;BME280;22407;42.820;23.374;2022-08-03T02:41:51;95780.60;;;13.01;92.81
31873;BME280;22407;42.820;23.374;2022-08-03T02:44:24;95783.19;;;13.20;91.77
31873;BME280;22407;42.820;23.374;2022-08-03T02:47:00;95789.22;;;13.36;90.25
31873;BME280;22407;42.820;23.374;2022-08-03T02:49:29;95780.72;;;13.23;90.67
31873;BME280;22407;42.820;23.374;2022-08-03T02:51:59;95785.19;;;12.94;92.89
31873;BME280;22407;42.820;23.374;2022-08-03T02:54:32;95778.58;;;12.98;93.83
31873;BME280;22407;42.820;23.374;2022-08-03T02:57:02;95769.52;;;12.91;94.04
31873;BME280;22407;42.820;23.374;2022-08-03T02:59:33;95781.73;;;13.26;92.10
31873;BME280;22407;42.820;23.374;2022-08-03T03:02:04;95779.34;;;13.46;90.58
31873;BME280;22407;42.820;23.374;2022-08-03T03:04:34;95792.05;;;13.34;91.33
31873;BME280;22407;42.820;23.374;2022-08-03T03:07:03;95792.05;;;13.34;91.29
31873;BME280;22407;42.820;23.374;2022-08-03T03:09:33;95792.75;;;13.36;91.00
31873;BME280;22407;42.820;23.374;2022-08-03T03:12:02;95792.70;;;13.32;91.63
31873;BME280;22407;42.820;23.374;2022-08-03T03:14:32;95793.34;;;13.30;91.19
31873;BME280;22407;42.820;23.374;2022-08-03T03:17:02;95790.59;;;13.12;93.17
31873;BME280;22407;42.820;23.374;2022-08-03T03:19:32;95795.23;;;13.24;92.21
31873;BME280;22407;42.820;23.374;2022-08-03T03:22:02;95796.01;;;13.30;91.80
31873;BME280;22407;42.820;23.374;2022-08-03T03:24:34;95804.30;;;13.04;93.02
31873;BME280;22407;42.820;23.374;2022-08-03T03:27:04;95803.42;;;12.99;93.38
31873;BME280;22407;42.820;23.374;2022-08-03T03:29:34;95804.58;;;13.01;93.67
31873;BME280;22407;42.820;23.374;2022-08-03T03:32:03;95804.02;;;13.21;92.30
31873;BME280;22407;42.820;23.374;2022-08-03T03:34:33;95800.05;;;13.34;91.14
31873;BME280;22407;42.820;23.374;2022-08-03T03:37:02;95804.25;;;13.27;91.21
31873;BME280;22407;42.820;23.374;2022-08-03T03:39:31;95805.53;;;13.23;91.71
31873;BME280;22407;42.820;23.374;2022-08-03T03:42:01;95797.94;;;13.14;92.30
31873;BME280;22407;42.820;23.374;2022-08-03T03:44:30;95809.19;;;13.08;93.20
31873;BME280;22407;42.820;23.374;2022-08-03T03:46:59;95803.14;;;13.30;91.97
31873;BME280;22407;42.820;23.374;2022-08-03T03:49:29;95804.25;;;13.27;91.94
31873;BME280;22407;42.820;23.374;2022-08-03T03:51:58;95807.08;;;13.12;92.65
31873;BME280;22407;42.820;23.374;2022-08-03T03:54:38;95808.79;;;13.17;92.60
31873;BME280;22407;42.820;23.374;2022-08-03T03:57:08;95807.31;;;13.18;92.57
31873;BME280;22407;42.820;23.374;2022-08-03T03:59:41;95818.62;;;13.16;92.79
31873;BME280;22407;42.820;23.374;2022-08-03T04:02:11;95814.08;;;13.27;93.70
31873;BME280;22407;42.820;23.374;2022-08-03T04:04:40;95821.62;;;13.41;92.05
31873;BME280;22407;42.820;23.374;2022-08-03T04:07:27;95824.66;;;13.60;91.17
31873;BME280;22407;42.820;23.374;2022-08-03T04:10:22;95818.45;;;13.55;91.87
31873;BME280;22407;42.820;23.374;2022-08-03T04:13:07;95825.59;;;13.55;92.24
31873;BME280;22407;42.820;23.374;2022-08-03T04:15:38;95818.33;;;13.61;92.14
31873;BME280;22407;42.820;23.374;2022-08-03T04:18:10;95820.38;;;13.49;93.66
31873;BME280;22407;42.820;23.374;2022-08-03T04:20:43;95821.99;;;13.60;93.73
31873;BME280;22407;42.820;23.374;2022-08-03T04:23:13;95822.37;;;13.65;94.00
31873;BME280;22407;42.820;23.374;2022-08-03T04:25:43;95819.45;;;13.90;92.99
31873;BME280;22407;42.820;23.374;2022-08-03T04:28:15;95820.10;;;13.88;93.58
31873;BME280;22407;42.820;23.374;2022-08-03T04:30:47;95827.23;;;13.84;94.42
31873;BME280;22407;42.820;23.374;2022-08-03T04:33:19;95831.00;;;13.95;94.18
31873;BME280;22407;42.820;23.374;2022-08-03T04:35:51;95833.31;;;14.08;93.84
31873;BME280;22407;42.820;23.374;2022-08-03T04:38:23;95830.69;;;14.12;93.52
31873;BME280;22407;42.820;23.374;2022-08-03T04:40:53;95832.14;;;14.28;93.20
31873;BME280;22407;42.820;23.374;2022-08-03T04:43:24;95834.19;;;14.34;92.86
31873;BME280;22407;42.820;23.374;2022-08-03T04:45:56;95835.80;;;14.49;92.85
31873;BME280;22407;42.820;23.374;2022-08-03T04:48:26;95836.80;;;14.62;92.95
31873;BME280;22407;42.820;23.374;2022-08-03T04:50:55;95839.25;;;14.59;93.60
31873;BME280;22407;42.820;23.374;2022-08-03T04:53:24;95845.67;;;14.67;92.91
31873;BME280;22407;42.820;23.374;2022-08-03T04:55:54;95842.05;;;14.76;92.55
31873;BME280;22407;42.820;23.374;2022-08-03T04:58:23;95828.56;;;14.82;92.21
31873;BME280;22407;42.820;23.374;2022-08-03T05:00:51;95840.52;;;14.99;91.98
31873;BME280;22407;42.820;23.374;2022-08-03T05:03:20;95837.23;;;15.10;90.81
31873;BME280;22407;42.820;23.374;2022-08-03T05:05:50;95836.97;;;15.21;90.28
31873;BME280;22407;42.820;23.374;2022-08-03T05:08:19;95840.92;;;15.09;91.03
31873;BME280;22407;42.820;23.374;2022-08-03T05:10:49;95839.08;;;15.09;91.64
31873;BME280;22407;42.820;23.374;2022-08-03T05:13:17;95845.34;;;15.26;91.16
31873;BME280;22407;42.820;23.374;2022-08-03T05:15:46;95846.72;;;15.34;90.94
31873;BME280;22407;42.820;23.374;2022-08-03T05:18:16;95845.99;;;15.58;88.99
31873;BME280;22407;42.820;23.374;2022-08-03T05:20:45;95844.47;;;15.60;89.11
31873;BME280;22407;42.820;23.374;2022-08-03T05:23:14;95849.25;;;15.78;87.95
31873;BME280;22407;42.820;23.374;2022-08-03T05:25:42;95850.00;;;16.13;86.83
31873;BME280;22407;42.820;23.374;2022-08-03T05:28:11;95855.53;;;16.20;85.92
31873;BME280;22407;42.820;23.374;2022-08-03T05:30:40;95858.06;;;16.38;85.48
31873;BME280;22407;42.820;23.374;2022-08-03T05:33:10;95853.36;;;16.56;85.21
31873;BME280;22407;42.820;23.374;2022-08-03T05:35:39;95852.37;;;16.70;84.53
31873;BME280;22407;42.820;23.374;2022-08-03T05:38:08;95863.59;;;16.86;84.20
31873;BME280;22407;42.820;23.374;2022-08-03T05:40:37;95861.56;;;17.00;84.03
31873;BME280;22407;42.820;23.374;2022-08-03T05:43:05;95860.13;;;17.41;82.43
31873;BME280;22407;42.820;23.374;2022-08-03T05:45:36;95858.38;;;18.50;78.24
31873;BME280;22407;42.820;23.374;2022-08-03T05:48:05;95864.24;;;19.74;71.57
31873;BME280;22407;42.820;23.374;2022-08-03T05:50:34;95859.11;;;20.95;67.92
31873;BME280;22407;42.820;23.374;2022-08-03T05:53:03;95858.50;;;21.67;62.24
31873;BME280;22407;42.820;23.374;2022-08-03T05:55:32;95864.11;;;22.20;60.52
31873;BME280;22407;42.820;23.374;2022-08-03T05:58:01;95856.74;;;22.56;58.47
31873;BME280;22407;42.820;23.374;2022-08-03T06:00:30;95854.77;;;22.60;57.64
31873;BME280;22407;42.820;23.374;2022-08-03T06:02:59;95851.35;;;23.49;54.40
31873;BME280;22407;42.820;23.374;2022-08-03T06:05:29;95847.25;;;24.43;51.40
31873;BME280;22407;42.820;23.374;2022-08-03T06:07:58;95846.32;;;24.79;50.37
31873;BME280;22407;42.820;23.374;2022-08-03T06:10:27;95846.80;;;24.69;50.79
31873;BME280;22407;42.820;23.374;2022-08-03T06:12:56;95850.73;;;25.14;49.40
31873;BME280;22407;42.820;23.374;2022-08-03T06:15:24;95843.95;;;24.89;48.96
31873;BME280;22407;42.820;23.374;2022-08-03T06:17:53;95846.70;;;25.23;48.51
31873;BME280;22407;42.820;23.374;2022-08-03T06:20:23;95844.25;;;25.49;48.23
31873;BME280;22407;42.820;23.374;2022-08-03T06:22:52;95856.65;;;25.45;47.57
31873;BME280;22407;42.820;23.374;2022-08-03T06:25:21;95841.15;;;25.90;47.08
31873;BME280;22407;42.820;23.374;2022-08-03T06:27:52;95847.45;;;26.02;46.88
31873;BME280;22407;42.820;23.374;2022-08-03T06:30:21;95844.14;;;26.09;46.90
31873;BME280;22407;42.820;23.374;2022-08-03T06:32:50;95849.21;;;26.45;46.88
31873;BME280;22407;42.820;23.374;2022-08-03T06:35:19;95840.06;;;26.48;45.64
31873;BME280;22407;42.820;23.374;2022-08-03T06:37:49;95840.26;;;26.86;45.04
31873;BME280;22407;42.820;23.374;2022-08-03T06:40:23;95842.38;;;26.84;45.64
31873;BME280;22407;42.820;23.374;2022-08-03T06:42:54;95834.19;;;27.05;45.03
31873;BME280;22407;42.820;23.374;2022-08-03T06:45:23;95841.47;;;27.35;44.11
31873;BME280;22407;42.820;23.374;2022-08-03T06:48:06;95835.55;;;27.38;43.68
31873;BME280;22407;42.820;23.374;2022-08-03T06:50:36;95836.15;;;27.07;45.28
31873;BME280;22407;42.820;23.374;2022-08-03T06:53:06;95837.97;;;27.37;44.10
31873;BME280;22407;42.820;23.374;2022-08-03T06:55:36;95831.89;;;27.44;44.28
31873;BME280;22407;42.820;23.374;2022-08-03T06:58:05;95830.13;;;27.76;44.30
31873;BME280;22407;42.820;23.374;2022-08-03T07:00:34;95833.60;;;27.36;44.08
31873;BME280;22407;42.820;23.374;2022-08-03T07:03:03;95833.34;;;27.49;44.32
31873;BME280;22407;42.820;23.374;2022-08-03T07:05:32;95830.72;;;27.78;43.52
31873;BME280;22407;42.820;23.374;2022-08-03T07:08:02;95826.83;;;27.27;44.34
31873;BME280;22407;42.820;23.374;2022-08-03T07:10:30;95827.67;;;27.51;44.01
31873;BME280;22407;42.820;23.374;2022-08-03T07:12:59;95830.04;;;27.85;43.55
31873;BME280;22407;42.820;23.374;2022-08-03T07:15:28;95821.44;;;28.17;43.00
31873;BME280;22407;42.820;23.374;2022-08-03T07:17:58;95827.50;;;28.05;43.01
31873;BME280;22407;42.820;23.374;2022-08-03T07:20:27;95828.69;;;27.97;43.46
31873;BME280;22407;42.820;23.374;2022-08-03T07:22:55;95831.37;;;28.09;42.66
31873;BME280;22407;42.820;23.374;2022-08-03T07:25:25;95823.38;;;27.91;42.46
31873;BME280;22407;42.820;23.374;2022-08-03T07:27:54;95824.43;;;27.89;43.46
31873;BME280;22407;42.820;23.374;2022-08-03T07:30:23;95826.80;;;27.86;42.54
31873;BME280;22407;42.820;23.374;2022-08-03T07:32:52;95824.81;;;28.36;41.60
31873;BME280;22407;42.820;23.374;2022-08-03T07:35:21;95824.40;;;28.70;40.73
31873;BME280;22407;42.820;23.374;2022-08-03T07:37:50;95823.77;;;28.97;40.34
31873;BME280;22407;42.820;23.374;2022-08-03T07:40:19;95818.52;;;28.93;39.87
31873;BME280;22407;42.820;23.374;2022-08-03T07:42:48;95818.17;;;29.06;39.97
31873;BME280;22407;42.820;23.374;2022-08-03T07:45:17;95820.73;;;29.10;39.78
31873;BME280;22407;42.820;23.374;2022-08-03T07:47:46;95824.59;;;28.98;39.88
31873;BME280;22407;42.820;23.374;2022-08-03T07:50:15;95821.17;;;29.22;39.59
31873;BME280;22407;42.820;23.374;2022-08-03T07:52:44;95820.25;;;29.14;39.40
31873;BME280;22407;42.820;23.374;2022-08-03T07:55:17;95816.16;;;29.14;39.47
31873;BME280;22407;42.820;23.374;2022-08-03T07:57:46;95826.05;;;29.54;38.25
31873;BME280;22407;42.820;23.374;2022-08-03T08:00:18;95826.56;;;29.70;36.88
31873;BME280;22407;42.820;23.374;2022-08-03T08:02:47;95819.20;;;29.70;38.33
31873;BME280;22407;42.820;23.374;2022-08-03T08:05:16;95821.64;;;29.89;38.25
31873;BME280;22407;42.820;23.374;2022-08-03T08:07:45;95821.87;;;29.85;38.12
31873;BME280;22407;42.820;23.374;2022-08-03T08:10:14;95820.36;;;29.97;37.95
31873;BME280;22407;42.820;23.374;2022-08-03T08:12:43;95821.92;;;29.90;37.01
31873;BME280;22407;42.820;23.374;2022-08-03T08:15:12;95828.87;;;29.98;36.09
31873;BME280;22407;42.820;23.374;2022-08-03T08:17:46;95821.03;;;30.06;35.38
31873;BME280;22407;42.820;23.374;2022-08-03T08:20:18;95823.61;;;29.94;35.70
31873;BME280;22407;42.820;23.374;2022-08-03T08:22:47;95823.12;;;29.99;36.10
31873;BME280;22407;42.820;23.374;2022-08-03T08:25:16;95818.92;;;30.14;35.78
31873;BME280;22407;42.820;23.374;2022-08-03T08:27:47;95812.20;;;30.24;36.02
31873;BME280;22407;42.820;23.374;2022-08-03T08:30:19;95815.63;;;30.58;36.08
31873;BME280;22407;42.820;23.374;2022-08-03T08:32:49;95810.64;;;30.53;35.52
31873;BME280;22407;42.820;23.374;2022-08-03T08:35:18;95818.84;;;30.06;35.90
31873;BME280;22407;42.820;23.374;2022-08-03T08:37:47;95810.42;;;30.10;36.02
31873;BME280;22407;42.820;23.374;2022-08-03T08:40:16;95815.84;;;29.85;36.32
31873;BME280;22407;42.820;23.374;2022-08-03T08:42:46;95808.80;;;29.53;37.97
31873;BME280;22407;42.820;23.374;2022-08-03T08:45:15;95810.34;;;29.27;37.94
31873;BME280;22407;42.820;23.374;2022-08-03T08:47:47;95811.38;;;29.09;38.54
31873;BME280;22407;42.820;23.374;2022-08-03T08:50:20;95801.20;;;28.87;39.04
31873;BME280;22407;42.820;23.374;2022-08-03T08:52:50;95801.58;;;28.94;37.83
31873;BME280;22407;42.820;23.374;2022-08-03T08:55:22;95805.25;;;29.16;38.24
31873;BME280;22407;42.820;23.374;2022-08-03T08:58:00;95808.64;;;29.43;37.33
31873;BME280;22407;42.820;23.374;2022-08-03T09:00:22;95801.14;;;29.53;37.15
31873;BME280;22407;42.820;23.374;2022-08-03T09:02:51;95798.65;;;29.51;38.26
31873;BME280;22407;42.820;23.374;2022-08-03T09:05:20;95800.56;;;29.50;38.84
31873;BME280;22407;42.820;23.374;2022-08-03T09:07:50;95800.23;;;29.47;37.95
31873;BME280;22407;42.820;23.374;2022-08-03T09:10:20;95803.08;;;29.35;37.79
31873;BME280;22407;42.820;23.374;2022-08-03T09:12:50;95803.88;;;29.33;37.47
31873;BME280;22407;42.820;23.374;2022-08-03T09:18:01;95801.22;;;29.21;37.28
31873;BME280;22407;42.820;23.374;2022-08-03T09:20:32;95798.05;;;29.10;37.33
31873;BME280;22407;42.820;23.374;2022-08-03T09:23:07;95800.66;;;29.05;37.35
31873;BME280;22407;42.820;23.374;2022-08-03T09:25:39;95790.99;;;28.97;37.41
31873;BME280;22407;42.820;23.374;2022-08-03T09:28:18;95793.41;;;28.96;37.33
31873;BME280;22407;42.820;23.374;2022-08-03T09:30:57;95790.38;;;29.09;36.47
31873;BME280;22407;42.820;23.374;2022-08-03T09:33:15;95788.90;;;28.70;37.22
31873;BME280;22407;42.820;23.374;2022-08-03T09:35:46;95786.50;;;28.57;38.43
31873;BME280;22407;42.820;23.374;2022-08-03T09:38:24;95790.30;;;28.44;37.56
31873;BME280;22407;42.820;23.374;2022-08-03T09:41:17;95793.58;;;28.44;37.83
31873;BME280;22407;42.820;23.374;2022-08-03T09:43:46;95801.48;;;28.43;37.64
31873;BME280;22407;42.820;23.374;2022-08-03T09:46:15;95795.72;;;28.42;37.99
31873;BME280;22407;42.820;23.374;2022-08-03T09:48:44;95802.48;;;28.51;38.03
31873;BME280;22407;42.820;23.374;2022-08-03T09:51:13;95793.34;;;28.74;37.76
31873;BME280;22407;42.820;23.374;2022-08-03T09:53:44;95794.92;;;28.87;36.84
31873;BME280;22407;42.820;23.374;2022-08-03T09:56:13;95794.47;;;29.09;36.16
31873;BME280;22407;42.820;23.374;2022-08-03T09:58:46;95792.33;;;29.28;36.23
31873;BME280;22407;42.820;23.374;2022-08-03T10:01:15;95788.50;;;29.29;35.45
31873;BME280;22407;42.820;23.374;2022-08-03T10:03:45;95787.02;;;29.39;35.88
31873;BME280;22407;42.820;23.374;2022-08-03T10:06:17;95779.81;;;29.52;35.47
31873;BME280;22407;42.820;23.374;2022-08-03T10:09:02;95780.75;;;29.60;34.98
31873;BME280;22407;42.820;23.374;2022-08-03T10:11:30;95784.03;;;29.60;35.53
31873;BME280;22407;42.820;23.374;2022-08-03T10:14:01;95778.08;;;29.46;34.61
31873;BME280;22407;42.820;23.374;2022-08-03T10:16:37;95780.52;;;29.25;35.85
31873;BME280;22407;42.820;23.374;2022-08-03T10:19:07;95780.97;;;29.20;36.91
31873;BME280;22407;42.820;23.374;2022-08-03T10:21:39;95775.66;;;29.30;36.12
31873;BME280;22407;42.820;23.374;2022-08-03T10:24:09;95777.75;;;29.23;36.21
31873;BME280;22407;42.820;23.374;2022-08-03T10:26:39;95780.75;;;29.24;36.19
31873;BME280;22407;42.820;23.374;2022-08-03T10:29:17;95777.99;;;29.21;36.32
31873;BME280;22407;42.820;23.374;2022-08-03T10:31:43;95770.98;;;29.28;37.07
31873;BME280;22407;42.820;23.374;2022-08-03T10:34:18;95767.24;;;29.15;37.43
31873;BME280;22407;42.820;23.374;2022-08-03T10:36:49;95772.73;;;29.17;37.60
31873;BME280;22407;42.820;23.374;2022-08-03T10:39:22;95770.83;;;29.18;37.07
31873;BME280;22407;42.820;23.374;2022-08-03T10:41:51;95772.31;;;29.25;37.64
31873;BME280;22407;42.820;23.374;2022-08-03T10:44:23;95759.50;;;29.67;35.71
31873;BME280;22407;42.820;23.374;2022-08-03T10:46:54;95752.80;;;30.46;35.94
31873;BME280;22407;42.820;23.374;2022-08-03T10:49:24;95747.09;;;31.15;33.92
31873;BME280;22407;42.820;23.374;2022-08-03T10:51:53;95739.98;;;31.59;32.37
31873;BME280;22407;42.820;23.374;2022-08-03T10:54:36;95734.55;;;31.69;32.27
31873;BME280;22407;42.820;23.374;2022-08-03T10:57:19;95730.19;;;31.81;32.30
31873;BME280;22407;42.820;23.374;2022-08-03T10:59:57;95741.42;;;31.77;32.61
31873;BME280;22407;42.820;23.374;2022-08-03T11:05:28;95728.54;;;32.61;30.83
31873;BME280;22407;42.820;23.374;2022-08-03T11:08:23;95727.61;;;32.22;30.95
31873;BME280;22407;42.820;23.374;2022-08-03T11:10:55;95730.03;;;32.01;31.85
31873;BME280;22407;42.820;23.374;2022-08-03T11:13:25;95722.15;;;32.33;33.44
31873;BME280;22407;42.820;23.374;2022-08-03T11:15:58;95727.38;;;32.37;30.97
31873;BME280;22407;42.820;23.374;2022-08-03T11:18:28;95727.33;;;32.11;31.22
31873;BME280;22407;42.820;23.374;2022-08-03T11:20:59;95731.34;;;31.93;32.09
31873;BME280;22407;42.820;23.374;2022-08-03T11:23:45;95726.52;;;31.55;33.05
31873;BME280;22407;42.820;23.374;2022-08-03T11:26:18;95722.39;;;31.50;32.81
31873;BME280;22407;42.820;23.374;2022-08-03T11:28:48;95723.48;;;31.51;32.36
31873;BME280;22407;42.820;23.374;2022-08-03T11:34:07;95705.38;;;32.31;32.27
31873;BME280;22407;42.820;23.374;2022-08-03T11:39:47;95704.85;;;32.35;31.68
31873;BME280;22407;42.820;23.374;2022-08-03T11:44:57;95698.01;;;32.96;31.27
31873;BME280;22407;42.820;23.374;2022-08-03T11:47:28;95697.98;;;32.50;31.17
31873;BME280;22407;42.820;23.374;2022-08-03T11:49:58;95687.78;;;32.12;31.44
31873;BME280;22407;42.820;23.374;2022-08-03T11:52:33;95686.45;;;32.30;30.90
31873;BME280;22407;42.820;23.374;2022-08-03T11:55:08;95695.75;;;32.11;31.67
31873;BME280;22407;42.820;23.374;2022-08-03T11:57:35;95688.66;;;32.43;31.06
31873;BME280;22407;42.820;23.374;2022-08-03T12:00:25;95690.61;;;32.79;30.88
31873;BME280;22407;42.820;23.374;2022-08-03T12:03:10;95681.80;;;32.82;30.35
31873;BME280;22407;42.820;23.374;2022-08-03T12:10:58;95671.87;;;32.11;31.04
31873;BME280;22407;42.820;23.374;2022-08-03T12:13:48;95679.98;;;31.73;31.70
31873;BME280;22407;42.820;23.374;2022-08-03T12:16:02;95680.45;;;31.55;32.65
31873;BME280;22407;42.820;23.374;2022-08-03T12:18:31;95675.53;;;31.14;32.79
31873;BME280;22407;42.820;23.374;2022-08-03T12:21:08;95655.39;;;30.90;33.18
31873;BME280;22407;42.820;23.374;2022-08-03T12:23:38;95668.53;;;30.88;33.56
31873;BME280;22407;42.820;23.374;2022-08-03T12:26:08;95672.61;;;31.31;33.11
31873;BME280;22407;42.820;23.374;2022-08-03T12:28:37;95672.13;;;32.05;30.87
31873;BME280;22407;42.820;23.374;2022-08-03T12:31:08;95667.77;;;32.40;29.86
31873;BME280;22407;42.820;23.374;2022-08-03T12:34:00;95658.70;;;32.42;29.69
31873;BME280;22407;42.820;23.374;2022-08-03T12:36:35;95665.90;;;32.74;30.13
31873;BME280;22407;42.820;23.374;2022-08-03T12:39:07;95658.18;;;32.42;29.97
31873;BME280;22407;42.820;23.374;2022-08-03T12:41:39;95658.72;;;32.21;30.35
31873;BME280;22407;42.820;23.374;2022-08-03T12:44:08;95656.58;;;31.53;30.94
31873;BME280;22407;42.820;23.374;2022-08-03T12:46:39;95672.28;;;30.80;32.18
31873;BME280;22407;42.820;23.374;2022-08-03T12:49:13;95668.90;;;30.67;32.75
31873;BME280;22407;42.820;23.374;2022-08-03T12:54:17;95662.69;;;30.18;33.59
31873;BME280;22407;42.820;23.374;2022-08-03T12:57:01;95662.00;;;30.03;34.16
31873;BME280;22407;42.820;23.374;2022-08-03T12:59:33;95663.73;;;30.11;34.15
31873;BME280;22407;42.820;23.374;2022-08-03T13:02:03;95658.48;;;30.07;34.15
31873;BME280;22407;42.820;23.374;2022-08-03T13:04:33;95661.92;;;29.95;33.76
31873;BME280;22407;42.820;23.374;2022-08-03T13:07:05;95663.78;;;29.87;34.17
31873;BME280;22407;42.820;23.374;2022-08-03T13:09:52;95663.83;;;29.70;34.71
31873;BME280;22407;42.820;23.374;2022-08-03T13:12:23;95665.34;;;29.61;34.39
31873;BME280;22407;42.820;23.374;2022-08-03T13:14:55;95658.48;;;29.36;34.28
31873;BME280;22407;42.820;23.374;2022-08-03T13:17:25;95652.66;;;29.30;34.75
31873;BME280;22407;42.820;23.374;2022-08-03T13:19:54;95652.31;;;29.24;34.49
31873;BME280;22407;42.820;23.374;2022-08-03T13:22:25;95660.12;;;29.15;35.27
31873;BME280;22407;42.820;23.374;2022-08-03T13:24:56;95654.39;;;29.14;35.62
31873;BME280;22407;42.820;23.374;2022-08-03T13:27:28;95651.66;;;29.14;35.80
31873;BME280;22407;42.820;23.374;2022-08-03T13:29:58;95648.65;;;29.16;36.23
31873;BME280;22407;42.820;23.374;2022-08-03T13:32:27;95652.72;;;29.13;36.26
31873;BME280;22407;42.820;23.374;2022-08-03T13:34:56;95642.66;;;29.16;35.99
31873;BME280;22407;42.820;23.374;2022-08-03T13:37:25;95642.25;;;29.07;36.02
31873;BME280;22407;42.820;23.374;2022-08-03T13:39:54;95640.18;;;29.15;36.05
31873;BME280;22407;42.820;23.374;2022-08-03T13:42:23;95635.12;;;29.26;36.15
31873;BME280;22407;42.820;23.374;2022-08-03T13:44:52;95629.98;;;29.52;35.96
31873;BME280;22407;42.820;23.374;2022-08-03T13:47:21;95633.86;;;29.56;35.70